Latest Weather Observations for Barimunya

IDW60801

Issued at 6:35 pm WST Wednesday 30 July 2014 (issued every 30 minutes, with the page automatically refreshed every 10 minutes)

About weather observations | Map of weather stations | Latest weather observations for WA | Other Formats
Station Details ID: 505053 Name: BARIMUNYA Lat: -22.67 Lon: 119.16 Height: 629.17 m
Data from the previous 72 hours. | See also: Recent months for locations in Western Australia
Date/Time
WST
Temp
°C
App
Temp
°C
Dew
Point
Rel
Hum
%
Delta-T
°C
Wind Press
QNH
hPa
Press
MSL
hPa
Rain
since 9 am
mm
Dir
 
Spd
km/h
Gust
km/h
Spd
kts
Gust
kts
30/06:30pm 20.3 19.4 5.9 39 7.4 CALM 0 0 0 0 1020.4 - 0.0
30/06:00pm 22.1 20.4 4.2 31 9.0 N 2 7 1 4 1020.2 1019.0 0.0
30/05:30pm 24.5 23.2 4.3 27 10.3 CALM 0 0 0 0 1020.1 - 0.0
30/05:00pm 26.1 24.2 2.7 22 11.7 NNW 2 7 1 4 1020.0 1018.8 0.0
30/04:30pm 25.8 22.5 2.5 22 11.6 N 9 13 5 7 1020.0 - 0.0
30/04:00pm 25.5 22.7 2.2 22 11.5 ESE 6 11 3 6 1020.0 1018.8 0.0
30/03:30pm 26.2 23.5 2.8 22 11.8 W 6 11 3 6 1020.0 - 0.0
30/03:00pm 25.7 21.2 2.4 22 11.6 WSW 15 22 8 12 1020.2 1019.0 0.0
30/02:30pm 26.5 23.8 3.7 23 11.7 N 7 19 4 10 1020.4 - 0.0
30/02:00pm 25.1 22.4 2.5 23 11.2 SSW 6 13 3 7 1020.5 1019.4 0.0
30/01:30pm 25.9 22.6 2.6 22 11.7 N 9 17 5 9 1020.9 - 0.0
30/01:00pm 25.4 22.5 2.8 23 11.3 NW 7 13 4 7 1021.4 1020.2 0.0
30/12:30pm 25.3 22.1 3.3 24 11.1 ENE 9 15 5 8 1021.8 - 0.0
30/12:00pm 24.8 22.3 3.5 25 10.7 NE 6 9 3 5 1022.3 1021.2 0.0
30/11:30am 23.6 20.1 3.5 27 10.1 ESE 11 17 6 9 1022.9 - 0.0
30/11:00am 22.6 19.0 3.2 28 9.6 ESE 11 19 6 10 1023.2 1022.1 0.0
30/10:30am 22.1 18.1 2.8 28 9.5 E 13 17 7 9 1023.5 - 0.0
30/10:00am 21.6 17.3 3.3 30 9.0 E 15 22 8 12 1023.9 1022.8 0.0
30/09:30am 20.1 16.5 2.9 32 8.3 SE 11 17 6 9 1023.9 - 0.0
30/09:00am 19.0 15.8 3.2 35 7.6 SE 9 15 5 8 1024.0 1022.9 0.0
30/08:30am 16.8 14.9 4.8 45 5.9 SSW 4 7 2 4 1023.8 - 0.0
30/08:00am 15.0 13.3 4.1 48 5.2 SE 2 6 1 3 1023.8 1022.7 0.0
30/07:30am 12.1 11.1 5.5 64 3.2 CALM 0 0 0 0 1023.5 - 0.0
30/07:00am 11.2 10.2 5.5 68 2.7 CALM 0 0 0 0 1023.2 1022.1 0.0
30/06:30am 11.0 9.9 4.9 66 2.9 CALM 0 0 0 0 1022.9 - 0.0
30/06:00am 10.2 9.1 5.0 70 2.4 CALM 0 0 0 0 1022.7 1021.5 0.0
30/05:30am 10.5 9.4 4.9 68 2.6 CALM 0 0 0 0 1022.5 - 0.0
30/05:00am 10.8 9.9 6.0 72 2.3 CALM 0 0 0 0 1022.0 1020.9 0.0
30/04:30am 10.9 9.9 5.4 69 2.6 CALM 0 0 0 0 1021.9 - 0.0
30/04:00am 11.5 10.5 5.6 67 2.8 CALM 0 0 0 0 1021.8 1020.7 0.0
30/03:30am 11.4 10.5 6.1 70 2.6 CALM 0 0 0 0 1021.9 - 0.0
30/03:00am 11.4 9.8 6.3 71 2.5 ESE 4 9 2 5 1021.9 1020.8 0.0
30/02:30am 12.0 11.1 6.1 67 2.9 CALM 0 0 0 0 1022.0 - 0.0
30/02:00am 13.4 12.4 5.6 59 3.8 CALM 0 0 0 0 1022.1 1021.0 0.0
30/01:30am 12.4 11.5 6.0 65 3.1 CALM 0 6 0 3 1022.3 - 0.0
30/01:00am 12.4 11.5 6.2 66 3.0 CALM 0 0 0 0 1022.5 1021.3 0.0
30/12:30am 14.1 11.9 5.5 56 4.2 ESE 6 9 3 5 1022.3 - 0.0
30/12:00am 14.3 13.4 5.9 57 4.1 ESE 0 0 0 0 1022.1 1021.0 0.0
 
Date/Time
WST
Temp
°C
App
Temp
°C
Dew
Point
Rel
Hum
%
Delta-T
°C
Wind Press
QNH
hPa
Press
MSL
hPa
Rain
since 9 am
mm
Dir
 
Spd
km/h
Gust
km/h
Spd
kts
Gust
kts
29/11:30pm 15.3 14.4 6.1 54 4.6 CALM 0 0 0 0 1022.3 - 0.0
29/11:00pm 15.6 14.4 4.6 48 5.3 CALM 0 0 0 0 1022.6 1021.4 0.0
29/10:30pm 16.0 14.9 5.0 48 5.4 CALM 0 6 0 3 1022.7 - 0.0
29/10:00pm 17.2 15.0 5.5 46 5.8 ENE 6 9 3 5 1022.7 1021.5 0.0
29/09:30pm 15.6 14.3 6.1 53 4.7 ENE 2 9 1 5 1022.6 - 0.0
29/09:00pm 18.8 15.7 3.8 37 7.3 E 9 11 5 6 1022.8 1021.6 0.0
29/08:30pm 17.7 15.3 5.3 44 6.2 ENE 7 9 4 5 1022.8 - 0.0
29/08:00pm 17.9 15.1 5.2 43 6.3 ENE 9 11 5 6 1022.7 1021.5 0.0
29/07:30pm 17.6 16.7 6.2 47 5.8 CALM 0 6 0 3 1022.5 - 0.0
29/07:00pm 17.6 17.0 7.4 51 5.3 CALM 0 0 0 0 1022.3 1021.2 0.0
29/06:30pm 19.7 18.4 6.1 41 7.0 SE 2 6 1 3 1022.1 - 0.0
29/06:00pm 21.9 19.3 4.0 31 8.9 SE 7 9 4 5 1022.0 1020.9 0.0
29/05:30pm 23.6 21.1 3.5 27 10.1 ENE 6 9 3 5 1021.7 - 0.0
29/05:00pm 24.7 22.0 2.8 24 10.9 E 6 7 3 4 1021.6 1020.4 0.0
29/04:30pm 25.0 22.6 2.4 23 11.2 SSE 4 9 2 5 1021.4 - 0.0
29/04:00pm 25.0 21.4 3.0 24 11.0 SSE 11 17 6 9 1021.3 1020.1 0.0
29/03:30pm 25.0 21.3 2.4 23 11.2 ESE 11 19 6 10 1021.1 - 0.0
29/03:00pm 24.5 21.7 2.0 23 11.0 S 6 13 3 7 1021.2 1020.0 0.0
29/02:30pm 25.0 21.3 2.4 23 11.2 NNE 11 19 6 10 1021.3 - 0.0
29/02:00pm 24.3 21.4 2.5 24 10.8 ESE 7 22 4 12 1021.5 1020.3 0.0
29/01:30pm 24.4 20.6 1.9 23 11.0 ESE 11 20 6 11 1021.6 - 0.0
29/01:00pm 24.1 19.7 2.9 25 10.5 E 15 22 8 12 1021.9 1020.8 0.0
29/12:30pm 23.9 19.6 3.2 26 10.4 E 15 24 8 13 1022.5 - 0.0
29/12:00pm 23.0 17.7 3.0 27 9.9 E 20 24 11 13 1023.1 1021.9 0.0
29/11:30am 22.1 18.1 2.8 28 9.5 ESE 13 22 7 12 1023.3 - 0.0
29/11:00am 22.2 17.8 2.8 28 9.5 E 15 20 8 11 1023.6 1022.5 0.0
29/10:30am 21.2 17.1 2.5 29 9.1 ESE 13 24 7 13 1023.7 - 0.0
29/10:00am 20.2 15.3 2.1 30 8.6 SE 17 22 9 12 1023.9 1022.8 0.0
29/09:30am 19.3 14.1 2.2 32 8.1 SE 19 26 10 14 1024.0 - 0.0
29/09:00am 18.2 13.3 1.7 33 7.7 ESE 17 24 9 13 1024.3 1023.1 0.0
29/08:30am 17.2 12.7 2.0 36 7.1 SE 15 20 8 11 1024.0 - 0.0
29/08:00am 15.5 12.1 2.0 40 6.2 SSE 9 15 5 8 1023.7 1022.6 0.0
29/07:30am 11.9 9.5 4.4 60 3.5 SSE 6 11 3 6 1023.3 - 0.0
29/07:00am 9.4 7.2 3.2 65 2.8 SSE 4 11 2 6 1022.9 1021.7 0.0
29/06:30am 10.8 8.6 3.1 59 3.5 SSE 4 9 2 5 1022.5 - 0.0
29/06:00am 10.2 8.8 3.5 63 3.0 CALM 0 0 0 0 1022.1 1021.0 0.0
29/05:30am 10.6 7.7 4.5 66 2.8 SSE 9 11 5 6 1021.9 - 0.0
29/05:00am 10.5 9.0 3.1 60 3.3 CALM 0 0 0 0 1021.7 1020.5 0.0
29/04:30am 9.9 8.5 3.6 65 2.9 CALM 0 0 0 0 1021.6 - 0.0
29/04:00am 11.2 9.8 3.7 60 3.4 CALM 0 0 0 0 1021.8 1020.7 0.0
29/03:30am 10.7 7.8 4.8 67 2.8 SE 9 11 5 6 1021.8 - 0.0
29/03:00am 13.2 10.7 1.8 46 5.1 S 4 9 2 5 1021.7 1020.5 0.0
29/02:30am 13.0 11.2 1.0 44 5.3 CALM 0 0 0 0 1021.7 - 0.0
29/02:00am 13.5 12.0 3.0 49 4.8 CALM 0 0 0 0 1021.8 1020.7 0.0
29/01:30am 11.4 9.7 5.7 68 2.7 S 4 7 2 4 1022.0 - 0.0
29/01:00am 13.0 11.5 3.1 51 4.5 CALM 0 0 0 0 1022.1 1021.0 0.0
29/12:30am 12.9 11.5 3.8 54 4.2 CALM 0 0 0 0 1022.1 - 0.0
29/12:00am 12.7 11.5 4.7 58 3.8 CALM 0 0 0 0 1022.2 1021.1 0.0
 
Date/Time
WST
Temp
°C
App
Temp
°C
Dew
Point
Rel
Hum
%
Delta-T
°C
Wind Press
QNH
hPa
Press
MSL
hPa
Rain
since 9 am
mm
Dir
 
Spd
km/h
Gust
km/h
Spd
kts
Gust
kts
28/11:30pm 14.0 12.4 2.3 45 5.3 CALM 0 0 0 0 1022.2 - 0.0
28/11:00pm 13.8 12.6 4.4 53 4.5 CALM 0 0 0 0 1022.3 1021.2 0.0
28/10:30pm 15.1 13.9 4.8 50 5.0 CALM 0 2 0 1 1022.3 - 0.0
28/10:00pm 16.1 14.7 3.5 43 6.0 CALM 0 4 0 2 1022.3 1021.2 0.0
28/09:30pm 17.7 14.4 2.5 36 7.2 S 9 13 5 7 1022.3 - 0.0
28/09:00pm 16.6 12.2 4.9 46 5.7 SSW 17 20 9 11 1022.1 1021.0 0.0
28/08:30pm 15.6 14.1 5.2 50 5.1 ENE 2 7 1 4 1021.8 - 0.0
28/08:00pm 18.2 16.4 3.7 38 7.0 NE 2 7 1 4 1021.7 1020.5 0.0
28/07:30pm 17.0 15.4 6.2 49 5.5 NE 4 7 2 4 1021.5 - 0.0
28/07:00pm 18.5 15.6 4.7 40 6.8 NNE 9 11 5 6 1021.3 1020.1 0.0
28/06:30pm 19.1 16.2 4.8 39 7.1 NNE 9 9 5 5 1021.1 - 0.0
28/06:00pm 21.1 18.4 3.8 32 8.6 N 7 9 4 5 1020.9 1019.7 0.0
28/05:30pm 23.3 20.7 3.3 27 10.0 NNW 6 7 3 4 1020.6 - 0.0
28/05:00pm 24.7 23.2 2.8 24 10.9 CALM 0 6 0 3 1020.4 1019.3 0.0
28/04:30pm 24.9 20.4 2.4 23 11.2 N 15 26 8 14 1020.2 - 0.0
28/04:00pm 25.4 23.0 2.2 22 11.5 N 4 17 2 9 1020.1 1018.9 0.0
28/03:30pm 24.9 20.7 1.7 22 11.4 W 13 20 7 11 1020.1 - 0.0
28/03:00pm 25.0 21.3 2.4 23 11.2 NW 11 26 6 14 1020.3 1019.1 0.0
28/02:30pm 25.0 21.7 2.4 23 11.2 NW 9 15 5 8 1020.2 - 0.0
28/02:00pm 24.9 21.5 1.7 22 11.3 NNW 9 15 5 8 1020.4 1019.3 0.0
28/01:30pm 25.1 20.2 1.9 22 11.4 NNW 17 28 9 15 1020.8 - 0.0
28/01:00pm 23.9 19.8 2.1 24 10.6 WNW 13 24 7 13 1021.4 1020.2 0.0
28/12:30pm 23.8 20.8 2.0 24 10.7 NE 7 17 4 9 1021.9 - 0.0
28/12:00pm 22.7 19.8 1.7 25 10.1 E 6 13 3 7 1022.6 1021.4 0.0
28/11:30am 22.7 19.8 1.7 25 10.1 SSW 6 11 3 6 1023.0 - 0.0
28/11:00am 22.4 19.3 1.4 25 10.0 SSW 7 13 4 7 1023.5 1022.4 0.0
28/10:30am 21.1 18.9 0.9 26 9.5 SSE 2 7 1 4 1023.8 - 0.0
28/10:00am 19.8 16.6 0.8 28 8.8 S 7 11 4 6 1024.0 1022.9 0.0
28/09:30am 18.8 16.4 -0.1 28 8.5 SSE 2 7 1 4 1024.2 - 0.0
28/09:00am 17.5 15.2 0.2 31 7.7 SW 2 6 1 3 1023.8 1022.7 0.0
28/08:30am 16.0 13.3 0.2 34 7.0 SW 4 7 2 4 1023.7 - 0.0
28/08:00am 15.0 13.0 0.1 36 6.5 CALM 0 7 0 4 1023.5 1022.4 0.0
28/07:30am 13.5 9.9 0.9 42 5.6 WSW 9 13 5 7 1023.1 - 0.0
28/07:00am 12.1 9.1 1.1 47 4.8 WSW 6 7 3 4 1022.6 1021.4 0.0
28/06:30am 11.8 9.7 2.0 51 4.4 WSW 2 7 1 4 1022.3 - 0.0
28/06:00am 11.0 7.8 3.3 59 3.5 WSW 9 11 5 6 1022.1 1021.0 0.0
28/05:30am 11.2 9.8 3.7 60 3.4 CALM 0 4 0 2 1021.8 - 0.0
28/05:00am 11.6 9.4 3.4 57 3.7 W 4 7 2 4 1021.8 1020.7 0.0
28/04:30am 11.8 9.1 3.6 57 3.8 W 7 7 4 4 1021.7 - 0.0
28/04:00am 11.3 9.9 3.6 59 3.5 CALM 0 0 0 0 1021.7 1020.5 0.0
28/03:30am 10.3 9.2 5.1 70 2.4 CALM 0 2 0 1 1021.6 - 0.0
28/03:00am 11.9 10.9 5.5 65 3.1 CALM 0 0 0 0 1021.6 1020.4 0.0
28/02:30am 12.5 11.2 4.2 57 3.9 CALM 0 4 0 2 1021.6 - 0.0
28/02:00am 13.4 11.0 4.3 54 4.3 W 6 7 3 4 1021.9 1020.8 0.0
28/01:30am 13.2 10.8 4.4 55 4.2 WSW 6 7 3 4 1022.0 - 0.0
28/01:00am 13.7 12.6 5.3 57 4.1 CALM 0 7 0 4 1022.3 1021.2 0.0
28/12:30am 13.7 11.5 5.3 57 4.1 W 6 7 3 4 1022.5 - 0.0
28/12:00am 14.8 11.9 4.8 51 4.8 W 9 13 5 7 1022.5 1021.3 0.0
 
Date/Time
WST
Temp
°C
App
Temp
°C
Dew
Point
Rel
Hum
%
Delta-T
°C
Wind Press
QNH
hPa
Press
MSL
hPa
Rain
since 9 am
mm
Dir
 
Spd
km/h
Gust
km/h
Spd
kts
Gust
kts
27/11:30pm 16.5 13.5 4.2 44 6.0 N 9 11 5 6 1022.3 - 0.0
27/11:00pm 16.0 13.1 4.4 46 5.6 NNW 9 11 5 6 1022.6 1021.4 0.0
27/10:30pm 16.4 13.5 4.8 46 5.7 NNW 9 11 5 6 1022.7 - 0.0
27/10:00pm 15.5 13.1 5.1 50 5.1 N 7 11 4 6 1022.7 1021.5 0.0
27/09:30pm 15.4 14.3 5.3 51 5.0 CALM 0 6 0 3 1022.9 - 0.0
27/09:00pm 14.5 13.5 5.8 56 4.3 CALM 0 0 0 0 1022.9 1021.7 0.0
27/08:30pm 15.5 14.4 5.1 50 5.1 CALM 0 0 0 0 1022.9 - 0.0
27/08:00pm 15.1 14.2 5.9 54 4.5 CALM 0 0 0 0 1022.9 1021.7 0.0
27/07:30pm 15.2 14.6 7.2 59 4.1 CALM 0 0 0 0 1022.7 - 0.0
27/07:00pm 16.6 16.0 7.3 54 4.8 CALM 0 0 0 0 1022.3 1021.2 0.0

Other Formats:

Comma delimited format used in spreadsheet applications
http://www.bom.gov.au/fwo/IDW60801/IDW60801.99313.axf

JavaScript Object Notation format (JSON) in row-major order
http://www.bom.gov.au/fwo/IDW60801/IDW60801.99313.json